METAR Data
IDs: Format: Raw Decoded Include TAF

Data at: 1727 UTC 24 Aug 2019

PAGL 241656Z AUTO 34006KT 10SM CLR 06/04 A2987 RMK AO2 SLP112 T00560044
PAGL 241556Z AUTO 35004KT 10SM CLR 03/01 A2986 RMK AO2 SLP110 T00280011
PAGL 241456Z AUTO 34007KT 10SM CLR 06/04 A2986 RMK AO2 SLP108 T00560039 50004
PAGL 241356Z AUTO 33008KT 10SM CLR 04/03 A2986 RMK AO2 SLP108 T00440033
PAGL 241256Z AUTO 34007KT 10SM CLR 07/05 A2986 RMK AO2 SLP108 T00670050
PAGL 241156Z AUTO 34007KT 10SM CLR 07/04 A2985 RMK AO2 SLP104 T00720044 10111 20056 51004
PAGL 241056Z AUTO 34009KT 10SM CLR 08/04 A2985 RMK AO2 SLP104 T00780044
PAGL 240956Z AUTO 35009KT 10SM CLR 07/04 A2984 RMK AO2 SLP101 T00720039
PAGL 240856Z AUTO 01003KT 10SM CLR 06/03 A2983 RMK AO2 SLP100 T00610033 401440061 51016
PAGL 240756Z AUTO 02007KT 10SM CLR 08/04 A2982 RMK AO2 SLP097 T00830039
PAGL 240656Z AUTO 01009KT 10SM CLR 09/04 A2981 RMK AO2 SLP091 T00890039
PAGL 240556Z AUTO 36010KT 10SM CLR 12/06 A2979 RMK AO2 SLP084 60000 T01170056 10144 20111 53004
PAGL 240456Z AUTO 36010KT 10SM CLR 12/05 A2978 RMK AO2 SLP082 T01220050
PAGL 240356Z AUTO 01012G17KT 10SM CLR 13/05 A2978 RMK AO2 SLP080 T01330050
PAGL 240256Z AUTO 36010KT 10SM CLR 14/04 A2978 RMK AO2 SLP080 60000 T01390044 55003
PAGL 240156Z AUTO 01011G19KT 10SM BKN038 14/06 A2977 RMK AO2 SLP078 T01390056
PAGL 240106Z AUTO 36011G15KT 10SM OVC030 13/08 A2977 RMK AO2
PAGL 240056Z AUTO 32008KT 10SM OVC028 12/10 A2977 RMK AO2 RAB02E22 SLP079 P0000 T01220100
PAGL 232356Z AUTO 32009KT 10SM SCT026 BKN035 OVC042 13/09 A2978 RMK AO2 SLP083 T01330089 10133 20083 56001
PAGL 232256Z AUTO 32008G14KT 10SM FEW024 OVC042 12/08 A2978 RMK AO2 SLP083 T01170083
PAGL 232253Z AUTO 32009G14KT 10SM SCT024 OVC042 12/08 A2978 RMK AO2
PAGL 232156Z AUTO 32011G15KT 10SM OVC024 11/08 A2979 RMK AO2 SLP084 T01110083
PAGL 232056Z AUTO 32006KT 10SM BKN024 OVC038 11/07 A2979 RMK AO2 SLP085 T01060072 55000
PAGL 231956Z AUTO 34008KT 10SM OVC040 10/07 A2978 RMK AO2 SLP083 T01000072
PAGL 231856Z AUTO 32012KT 10SM BKN110 09/07 A2979 RMK AO2 SLP083 T00940067
PAGL 231756Z AUTO 33007KT 10SM BKN040 OVC080 08/06 A2979 RMK AO2 SLP085 T00830056 10089 20067 53003
PAGL 231656Z AUTO 35006KT 10SM OVC100 08/05 A2979 RMK AO2 SLP084 T00830050
PAGL 231556Z AUTO 34008KT 10SM OVC090 08/05 A2978 RMK AO2 SLP083 T00830050
PAGL 231456Z AUTO 34008KT 10SM BKN090 OVC100 08/04 A2978 RMK AO2 SLP082 T00830044 51004
PAGL 231356Z AUTO 34011KT 10SM OVC110 08/05 A2978 RMK AO2 SLP081 T00780050
PAGL 231256Z AUTO 34011G16KT 10SM OVC120 08/05 A2978 RMK AO2 SLP080 T00780050
PAGL 231156Z AUTO 36009KT 10SM CLR 07/05 A2977 RMK AO2 SLP077 T00720050 10122 20061 58000
PAGL 231056Z AUTO 35008KT 10SM CLR 07/05 A2978 RMK AO2 SLP080 T00720050
PAGL 230956Z AUTO 36008KT 10SM CLR 08/06 A2977 RMK AO2 SLP080 T00780056
PAGL 230856Z AUTO 34010KT 10SM CLR 09/06 A2977 RMK AO2 SLP078 T00890056 401670056 53011
PAGL 230756Z AUTO 34013G16KT 10SM CLR 09/05 A2975 RMK AO2 SLP073 T00890050
PAGL 230656Z AUTO 35013KT 10SM CLR 11/06 A2975 RMK AO2 SLP070 T01060056
PAGL 230556Z AUTO 36012G17KT 10SM CLR 12/06 A2974 RMK AO2 SLP067 T01220056 10167 20122 53005